KBFL/BFL METAR and TAF weather

Enter ICAO airport designator
Station Type Date Time Source
KBFL METAR 2022/05/23 14:54 UTC NOAA

KBFL 231454Z 10005KT 7SM CLR 22/03 A2995 RMK AO2 SLP136 T02220033 51008


Station Type Date Time Source
KBFL Decoded METAR 2022/05/23 14:54 UTC NOAA

BAKERSFIELD MEADOWS FIELD, CA, United States (KBFL) 35-26N 119-03W 151M
May 23, 2022 - 10:54 AM EDT / 2022.05.23 1454 UTC
Wind: from the E (100 degrees) at 6 MPH (5 KT):0
Visibility: 7 mile(s):0
Sky conditions: clear
Temperature: 72.0 F (22.2 C)
Dew Point: 37.9 F (3.3 C)
Relative Humidity: 28%
Pressure (altimeter): 29.95 in. Hg (1014 hPa)
Pressure tendency: 0.02 inches (0.8 hPa) higher than three hours ago
ob: KBFL 231454Z 10005KT 7SM CLR 22/03 A2995 RMK AO2 SLP136 T02220033 51008
cycle: 15

Station Type Date Time Source
KBFL TAF 2022/05/23 12:22 UTC NOAA

TAF KBFL 231120Z 2312/2412 VRB04KT P6SM SKC

Example: see airport list